Time;durP1;ratioP1;P1;durP2;ratioP2;P2;SDS_P1;SDS_P2;PMS_P1;PMS_P2;Temp;Humidity;BMP_temperature;BMP_pressure;BME280_temperature;BME280_humidity;BME280_pressure;Samples;Min_cycle;Max_cycle;Signal;HPM_P1;HPM_P2
2022/01/22 00:00:24;;;;;;;14.82;5.18;;;7.50;99.90;;;;;;5090715;28;20718;-77
2022/01/22 00:02:51;;;;;;;17.75;5.78;;;7.50;99.90;;;;;;5093136;28;20027;-76
2022/01/22 00:05:19;;;;;;;15.82;5.13;;;7.50;99.90;;;;;;5115670;23;20044;-75
2022/01/22 00:07:45;;;;;;;20.83;5.03;;;7.50;99.90;;;;;;5089588;28;20024;-76
2022/01/22 00:10:17;;;;;;;14.18;5.22;;;7.50;99.90;;;;;;5078783;28;20463;-75
2022/01/22 00:15:25;;;;;;;15.60;4.45;;;7.60;99.90;;;;;;5077958;28;20031;-75
2022/01/22 00:17:52;;;;;;;13.80;4.22;;;7.50;99.90;;;;;;5078069;28;20592;-75
2022/01/22 00:20:20;;;;;;;15.85;4.10;;;7.50;99.90;;;;;;5078409;28;20388;-75
2022/01/22 00:22:46;;;;;;;16.98;3.95;;;7.50;99.90;;;;;;5078271;28;20054;-74
2022/01/22 00:25:14;;;;;;;12.75;4.43;;;7.50;99.90;;;;;;5077990;28;20036;-74
2022/01/22 00:27:41;;;;;;;14.88;4.60;;;7.50;99.90;;;;;;5077153;28;20024;-75
2022/01/22 00:30:10;;;;;;;18.83;4.53;;;7.50;99.90;;;;;;5077899;28;20054;-76
2022/01/22 00:32:36;;;;;;;11.45;4.20;;;7.50;99.90;;;;;;5078026;28;20408;-75
2022/01/22 00:35:03;;;;;;;18.15;4.60;;;7.50;99.90;;;;;;5078358;28;20032;-76
2022/01/22 00:37:29;;;;;;;15.35;4.68;;;7.50;99.90;;;;;;5059927;28;20499;-74
2022/01/22 00:39:54;;;;;;;11.88;4.70;;;7.50;99.90;;;;;;5079867;28;20028;-73
2022/01/22 00:42:22;;;;;;;17.52;4.10;;;7.50;99.90;;;;;;5073571;28;20028;-74
2022/01/22 00:44:49;;;;;;;14.77;3.63;;;7.60;99.90;;;;;;5074212;28;20490;-73
2022/01/22 00:47:15;;;;;;;8.65;3.97;;;7.60;99.90;;;;;;5074065;28;20020;-75
2022/01/22 00:49:41;;;;;;;13.60;3.70;;;7.60;99.90;;;;;;5074528;28;20103;-75
2022/01/22 00:52:06;;;;;;;17.23;4.35;;;7.50;99.90;;;;;;5074588;28;20438;-74
2022/01/22 00:54:32;;;;;;;12.40;3.80;;;7.50;99.90;;;;;;5056362;28;20028;-75
2022/01/22 00:56:58;;;;;;;15.63;3.85;;;7.50;99.90;;;;;;5073909;28;20032;-75
2022/01/22 00:59:24;;;;;;;12.98;4.05;;;7.50;99.90;;;;;;5067824;28;20025;-75
2022/01/22 01:01:49;;;;;;;13.18;3.75;;;7.50;99.90;;;;;;5084100;28;20033;-75
2022/01/22 01:04:15;;;;;;;12.77;4.07;;;7.50;99.90;;;;;;5074470;28;20035;-76
2022/01/22 01:06:41;;;;;;;13.27;3.78;;;7.50;99.90;;;;;;5074417;28;20033;-75
2022/01/22 01:09:09;;;;;;;9.05;3.30;;;7.50;99.90;;;;;;5080805;28;20020;-75
2022/01/22 01:11:39;;;;;;;17.98;4.15;;;7.50;99.90;;;;;;5068181;28;20028;-75
2022/01/22 01:14:08;;;;;;;17.83;3.92;;;7.60;99.90;;;;;;5077957;28;20477;-76
2022/01/22 01:35:42;;;;;;;15.13;3.33;;;7.50;99.90;;;;;;5057835;28;20124;-75
2022/01/22 01:38:08;;;;;;;8.68;3.28;;;7.50;99.90;;;;;;5075775;28;20052;-76
2022/01/22 01:40:38;;;;;;;17.65;3.90;;;7.50;99.90;;;;;;5091444;28;20020;-75
2022/01/22 01:43:09;;;;;;;9.15;3.45;;;7.50;99.90;;;;;;5066200;28;20115;-75
2022/01/22 01:45:35;;;;;;;14.23;3.55;;;7.50;99.90;;;;;;5073231;28;20450;-76
2022/01/22 01:48:07;;;;;;;14.75;3.75;;;7.50;99.90;;;;;;5073693;28;20021;-74
2022/01/22 01:50:35;;;;;;;20.75;3.55;;;7.50;99.90;;;;;;5073530;28;20028;-76
2022/01/22 01:53:25;;;;;;;11.50;3.65;;;7.50;99.90;;;;;;5055035;28;20040;-75
2022/01/22 01:58:24;;;;;;;16.75;4.10;;;7.50;99.90;;;;;;5073131;28;20039;-74
2022/01/22 02:00:50;;;;;;;13.82;3.88;;;7.40;99.90;;;;;;5073703;28;20487;-76
2022/01/22 02:03:17;;;;;;;20.88;4.07;;;7.50;99.90;;;;;;5073174;28;20559;-76
2022/01/22 02:05:43;;;;;;;22.13;4.22;;;7.50;99.90;;;;;;5072534;28;20028;-75
2022/01/22 02:08:12;;;;;;;20.92;6.28;;;7.50;99.90;;;;;;5073194;28;20024;-75
2022/01/22 02:10:44;;;;;;;21.80;5.35;;;7.50;99.90;;;;;;5073448;28;20062;-75
2022/01/22 02:24:11;;;;;;;15.75;4.63;;;7.50;99.90;;;;;;5073539;28;20372;-75
2022/01/22 02:26:37;;;;;;;23.48;4.25;;;7.50;99.90;;;;;;5072858;28;20505;-75
2022/01/22 02:29:04;;;;;;;18.85;4.80;;;7.50;99.90;;;;;;5072807;28;20059;-75
2022/01/22 02:36:46;;;;;;;20.65;4.50;;;7.50;99.90;;;;;;5072668;28;20028;-74
2022/01/22 02:39:19;;;;;;;9.80;4.05;;;7.40;99.90;;;;;;5072577;28;20025;-75
2022/01/22 02:41:48;;;;;;;21.17;5.10;;;7.40;99.90;;;;;;5072696;28;20020;-74
2022/01/22 02:44:31;;;;;;;17.20;4.68;;;7.40;99.90;;;;;;5072635;28;20031;-74
2022/01/22 02:46:57;;;;;;;25.85;6.78;;;7.40;99.90;;;;;;5053948;28;20077;-75
2022/01/22 02:49:22;;;;;;;18.33;5.55;;;7.40;99.90;;;;;;5054786;28;20013;-74
2022/01/22 02:51:48;;;;;;;18.48;5.45;;;7.40;99.90;;;;;;5054570;28;20046;-74
2022/01/22 02:54:13;;;;;;;20.23;5.50;;;7.40;99.90;;;;;;5054661;28;20082;-76
2022/01/22 02:56:39;;;;;;;15.68;4.97;;;7.40;99.90;;;;;;5072339;28;20024;-75
2022/01/22 02:59:05;;;;;;;15.80;5.40;;;7.40;99.90;;;;;;5073552;28;20082;-75
2022/01/22 03:01:30;;;;;;;20.90;5.63;;;7.40;99.90;;;;;;5073871;28;20063;-75
2022/01/22 03:03:56;;;;;;;15.95;5.50;;;7.40;99.90;;;;;;5055153;28;20417;-75
2022/01/22 03:06:21;;;;;;;26.23;6.97;;;7.40;99.90;;;;;;5076757;28;20025;-75
2022/01/22 03:08:48;;;;;;;19.58;6.05;;;7.40;99.90;;;;;;5074853;28;20055;-75
2022/01/22 03:11:24;;;;;;;19.95;6.65;;;7.40;99.90;;;;;;5072510;28;20092;-76
2022/01/22 03:19:01;;;;;;;19.65;8.88;;;7.40;99.90;;;;;;5072138;28;20074;-75
2022/01/22 03:21:37;;;;;;;20.33;9.25;;;7.40;99.90;;;;;;5072324;28;20069;-76
2022/01/22 03:29:34;;;;;;;25.67;10.67;;;7.40;99.90;;;;;;5072161;28;20281;-76
2022/01/22 03:32:00;;;;;;;25.08;12.43;;;7.40;99.90;;;;;;5071345;28;20431;-77
2022/01/22 03:34:28;;;;;;;31.02;14.35;;;7.40;99.90;;;;;;5054144;28;20025;-76
2022/01/22 03:36:53;;;;;;;30.15;13.75;;;7.40;99.90;;;;;;5071984;28;20074;-75
2022/01/22 03:39:19;;;;;;;31.52;14.43;;;7.40;99.90;;;;;;5071976;28;20435;-76
2022/01/22 03:41:45;;;;;;;32.10;14.75;;;7.40;99.90;;;;;;5071907;28;20063;-75
2022/01/22 03:44:11;;;;;;;32.65;14.90;;;7.40;99.90;;;;;;5072319;28;20021;-77
2022/01/22 03:46:38;;;;;;;39.85;15.80;;;7.40;99.90;;;;;;5071839;28;20389;-76
2022/01/22 03:49:04;;;;;;;36.75;14.55;;;7.40;99.90;;;;;;5075918;28;20039;-77
2022/01/22 03:51:30;;;;;;;33.30;13.55;;;7.40;99.90;;;;;;5054253;28;20025;-75
2022/01/22 03:53:56;;;;;;;31.15;13.85;;;7.40;99.90;;;;;;5072047;28;20047;-75
2022/01/22 03:56:24;;;;;;;33.42;14.00;;;7.40;99.90;;;;;;5071701;28;20044;-77
2022/01/22 03:58:50;;;;;;;36.95;13.82;;;7.40;99.90;;;;;;5054063;28;20025;-78
2022/01/22 04:09:06;;;;;;;31.45;11.43;;;7.40;99.90;;;;;;5073999;28;20756;-76
2022/01/22 04:11:36;;;;;;;38.47;13.00;;;7.40;99.90;;;;;;5079079;28;20051;-77
2022/01/22 04:14:03;;;;;;;39.65;12.35;;;7.40;99.90;;;;;;5087024;28;20027;-76
2022/01/22 04:16:30;;;;;;;38.72;13.40;;;7.40;99.90;;;;;;5074898;28;20021;-78
2022/01/22 04:27:12;;;;;;;34.40;13.43;;;7.40;99.90;;;;;;5077110;28;20262;-77
2022/01/22 04:29:38;;;;;;;28.80;12.10;;;7.50;99.90;;;;;;5076317;28;20024;-78
2022/01/22 04:32:04;;;;;;;35.60;11.88;;;7.50;99.90;;;;;;5075409;28;20021;-77
2022/01/22 04:34:30;;;;;;;27.58;11.45;;;7.50;99.90;;;;;;5075650;28;20564;-77
2022/01/22 04:36:56;;;;;;;36.13;11.50;;;7.50;99.90;;;;;;5076082;28;20078;-78
2022/01/22 04:39:23;;;;;;;34.85;11.88;;;7.50;99.90;;;;;;5076504;28;20024;-77
2022/01/22 04:41:51;;;;;;;34.88;12.02;;;7.50;99.90;;;;;;5058575;28;20028;-77
2022/01/22 04:44:17;;;;;;;25.90;10.82;;;7.50;99.90;;;;;;5079331;28;20381;-78
2022/01/22 04:49:17;;;;;;;27.98;11.30;;;7.60;99.90;;;;;;5076782;28;20020;-77
2022/01/22 04:57:11;;;;;;;34.43;12.17;;;7.60;99.90;;;;;;5075938;28;20059;-77
2022/01/22 04:59:37;;;;;;;30.38;11.90;;;7.60;99.90;;;;;;5076518;28;20025;-76
2022/01/22 05:02:03;;;;;;;26.42;11.30;;;7.60;99.90;;;;;;5076546;28;20447;-76
2022/01/22 05:04:28;;;;;;;30.92;12.15;;;7.60;99.90;;;;;;5077379;28;20050;-77
2022/01/22 05:06:54;;;;;;;33.58;11.32;;;7.60;99.90;;;;;;5076336;28;20105;-77
2022/01/22 05:09:20;;;;;;;32.15;12.18;;;7.50;99.90;;;;;;5057998;28;20021;-75
2022/01/22 05:11:45;;;;;;;28.70;11.52;;;7.50;99.90;;;;;;5075655;28;20393;-75
2022/01/22 05:14:11;;;;;;;28.08;11.43;;;7.50;99.90;;;;;;5074948;28;20035;-76
2022/01/22 05:16:37;;;;;;;27.30;10.63;;;7.50;99.90;;;;;;5075566;28;20042;-77
2022/01/22 05:19:11;;;;;;;22.73;10.00;;;7.50;99.90;;;;;;5075462;28;20031;-76
2022/01/22 05:21:38;;;;;;;35.25;9.93;;;7.50;99.90;;;;;;5057577;28;20572;-77
2022/01/22 05:24:09;;;;;;;28.45;10.32;;;7.50;99.90;;;;;;5075438;28;20381;-75
2022/01/22 05:36:58;;;;;;;23.58;9.65;;;7.40;99.90;;;;;;5077362;28;20032;-76
2022/01/22 05:39:24;;;;;;;27.48;9.60;;;7.40;99.90;;;;;;5082146;28;20028;-77
2022/01/22 05:41:51;;;;;;;21.50;9.25;;;7.40;99.90;;;;;;5095958;28;20031;-77
2022/01/22 05:44:17;;;;;;;27.02;10.85;;;7.40;99.90;;;;;;5082323;28;20446;-76
2022/01/22 05:46:43;;;;;;;21.08;10.40;;;7.40;99.90;;;;;;5075188;28;20043;-75
2022/01/22 05:49:08;;;;;;;22.65;10.77;;;7.40;99.90;;;;;;5079560;28;20031;-79
2022/01/22 05:51:36;;;;;;;28.65;11.35;;;7.40;99.90;;;;;;5077127;28;20527;-76
2022/01/22 05:54:30;;;;;;;28.35;11.50;;;7.40;99.90;;;;;;5074451;28;20031;-76
2022/01/22 05:59:40;;;;;;;36.35;14.85;;;7.40;99.90;;;;;;5075260;28;20451;-76
2022/01/22 06:02:15;;;;;;;33.25;14.25;;;7.40;99.90;;;;;;5074844;28;20489;-74
2022/01/22 06:04:42;;;;;;;33.50;14.40;;;7.40;99.90;;;;;;5096560;23;20040;-75
2022/01/22 06:07:08;;;;;;;36.17;15.25;;;7.40;99.90;;;;;;5093246;28;20064;-75
2022/01/22 06:09:37;;;;;;;33.65;15.32;;;7.40;99.90;;;;;;5094694;28;20024;-75
2022/01/22 06:14:31;;;;;;;38.00;16.23;;;7.50;99.90;;;;;;5093721;28;20020;-75
2022/01/22 06:16:58;;;;;;;34.78;16.15;;;7.40;99.90;;;;;;5093230;28;20031;-76
2022/01/22 06:19:24;;;;;;;34.72;16.95;;;7.50;99.90;;;;;;5093261;28;20418;-75
2022/01/22 06:21:52;;;;;;;36.75;17.02;;;7.50;99.90;;;;;;5093490;28;20069;-75
2022/01/22 06:24:18;;;;;;;35.10;16.45;;;7.40;99.90;;;;;;5093493;28;20028;-75
2022/01/22 06:26:44;;;;;;;39.00;17.42;;;7.40;99.90;;;;;;5091712;28;20031;-75
2022/01/22 06:29:10;;;;;;;38.10;17.00;;;7.50;99.90;;;;;;5093070;28;20392;-76
2022/01/22 06:31:37;;;;;;;37.58;17.33;;;7.50;99.90;;;;;;5093071;28;20020;-75
2022/01/22 06:34:03;;;;;;;38.20;16.92;;;7.50;99.90;;;;;;5093144;28;20028;-75
2022/01/22 06:36:29;;;;;;;46.45;18.88;;;7.40;99.90;;;;;;5092679;28;20491;-76
2022/01/22 06:39:12;;;;;;;36.92;16.70;;;7.50;99.90;;;;;;5093496;28;20445;-76
2022/01/22 06:41:45;;;;;;;43.75;19.10;;;7.50;99.90;;;;;;5092193;28;20031;-77
2022/01/22 06:44:18;;;;;;;38.55;17.48;;;7.50;99.90;;;;;;5094625;28;20027;-75
2022/01/22 06:46:47;;;;;;;37.85;17.30;;;7.50;99.90;;;;;;5094041;28;20589;-76
2022/01/22 06:49:13;;;;;;;37.60;17.55;;;7.60;99.90;;;;;;5095172;28;20473;-76
2022/01/22 06:51:39;;;;;;;35.53;16.00;;;7.60;99.90;;;;;;5094390;28;20032;-75
2022/01/22 06:54:06;;;;;;;32.65;15.30;;;7.60;99.90;;;;;;5094001;28;20012;-75
2022/01/22 06:56:32;;;;;;;33.72;16.45;;;7.60;99.90;;;;;;5094252;28;20024;-75
2022/01/22 06:58:59;;;;;;;34.17;15.18;;;7.60;99.90;;;;;;5093131;28;20381;-75
2022/01/22 07:01:26;;;;;;;30.10;15.52;;;7.50;99.90;;;;;;5093083;28;20469;-76
2022/01/22 07:03:52;;;;;;;38.20;16.10;;;7.50;99.90;;;;;;5093048;28;20385;-75
2022/01/22 07:06:18;;;;;;;33.17;16.00;;;7.50;99.90;;;;;;5091837;28;20028;-76
2022/01/22 07:08:43;;;;;;;26.63;15.60;;;7.50;99.90;;;;;;5093941;28;20020;-76
2022/01/22 07:11:09;;;;;;;30.33;15.90;;;7.50;99.90;;;;;;5092717;28;20496;-75
2022/01/22 07:13:35;;;;;;;31.92;15.90;;;7.50;99.90;;;;;;5091178;28;20404;-76
2022/01/22 07:16:01;;;;;;;29.30;17.25;;;7.50;99.90;;;;;;5092534;28;20028;-76
2022/01/22 07:18:29;;;;;;;36.58;17.52;;;7.50;99.90;;;;;;5092882;28;20024;-75
2022/01/22 07:20:55;;;;;;;40.70;19.77;;;7.50;99.90;;;;;;5095756;28;20026;-76
2022/01/22 07:26:02;;;;;;;36.92;20.63;;;7.50;99.90;;;;;;5092111;28;20043;-75
2022/01/22 07:28:28;;;;;;;41.38;20.48;;;7.50;99.90;;;;;;5091602;28;20095;-74
2022/01/22 07:30:54;;;;;;;40.90;20.98;;;7.50;99.90;;;;;;5093144;28;20052;-75
2022/01/22 07:33:20;;;;;;;42.63;20.35;;;7.50;99.90;;;;;;5096620;28;20024;-74
2022/01/22 07:35:47;;;;;;;44.33;22.42;;;7.50;99.90;;;;;;5092799;28;20031;-77
2022/01/22 07:38:13;;;;;;;37.33;20.67;;;7.50;99.90;;;;;;5083803;28;20028;-73
2022/01/22 07:40:39;;;;;;;42.40;21.25;;;7.50;99.90;;;;;;5097845;28;20038;-74
2022/01/22 07:43:04;;;;;;;44.28;21.42;;;7.50;99.90;;;;;;5092827;28;20483;-76
2022/01/22 07:45:30;;;;;;;42.50;21.38;;;7.50;99.90;;;;;;5100581;28;20024;-75
2022/01/22 07:47:56;;;;;;;44.92;22.00;;;7.50;99.90;;;;;;5098045;28;20469;-75
2022/01/22 07:50:21;;;;;;;46.22;23.40;;;7.50;99.90;;;;;;5095036;28;20524;-75
2022/01/22 07:52:47;;;;;;;47.88;23.73;;;7.50;99.90;;;;;;5100935;28;20024;-74
2022/01/22 07:55:13;;;;;;;47.25;23.90;;;7.60;99.90;;;;;;5103832;28;20032;-76
2022/01/22 07:57:38;;;;;;;45.90;22.45;;;7.60;99.90;;;;;;5099656;28;20031;-76
2022/01/22 08:00:06;;;;;;;54.13;25.30;;;7.60;99.90;;;;;;5098880;28;20028;-75
2022/01/22 08:02:32;;;;;;;52.80;22.85;;;7.60;99.90;;;;;;5097181;28;20028;-75
2022/01/22 08:04:57;;;;;;;51.97;21.08;;;7.60;99.90;;;;;;5097525;28;20028;-74
2022/01/22 08:07:23;;;;;;;46.15;19.80;;;7.70;99.90;;;;;;5096073;28;20028;-75
2022/01/22 08:09:50;;;;;;;43.25;16.95;;;7.70;99.90;;;;;;5096775;28;20016;-75
2022/01/22 08:12:16;;;;;;;36.47;14.25;;;7.70;99.90;;;;;;5097516;28;20432;-74
2022/01/22 08:14:42;;;;;;;34.85;13.75;;;7.60;99.90;;;;;;5102183;28;20059;-75
2022/01/22 08:17:08;;;;;;;36.40;12.52;;;7.60;99.90;;;;;;5102090;28;20027;-74
2022/01/22 08:19:34;;;;;;;26.58;11.23;;;7.60;99.90;;;;;;5098712;28;20020;-74
2022/01/22 08:21:59;;;;;;;30.08;11.27;;;7.70;99.90;;;;;;5098057;28;20491;-76
2022/01/22 08:24:26;;;;;;;24.13;10.73;;;7.70;99.90;;;;;;5097362;28;20024;-76
2022/01/22 08:27:10;;;;;;;30.27;9.73;;;7.70;99.90;;;;;;5096268;28;20502;-75
2022/01/22 08:29:36;;;;;;;30.38;9.25;;;7.70;99.90;;;;;;5097148;28;20016;-75
2022/01/22 08:32:27;;;;;;;28.23;8.73;;;7.70;99.90;;;;;;5097356;28;20105;-76
2022/01/22 08:37:35;;;;;;;20.27;7.80;;;7.80;99.90;;;;;;5098531;28;20545;-77
2022/01/22 08:40:03;;;;;;;21.88;8.55;;;7.80;99.90;;;;;;5099035;28;20028;-76
2022/01/22 08:42:28;;;;;;;21.80;7.03;;;7.80;99.90;;;;;;5099116;28;20380;-75
2022/01/22 08:44:54;;;;;;;34.13;8.55;;;7.90;99.90;;;;;;5098970;28;20016;-77
2022/01/22 08:47:21;;;;;;;23.08;8.32;;;7.90;99.90;;;;;;5099074;28;20115;-75
2022/01/22 08:49:46;;;;;;;29.65;8.88;;;7.90;99.90;;;;;;5101261;28;20085;-74
2022/01/22 08:52:14;;;;;;;39.75;10.63;;;7.90;99.90;;;;;;5099509;28;20032;-76
2022/01/22 08:54:41;;;;;;;28.77;8.98;;;7.90;99.90;;;;;;5098583;28;20063;-75
2022/01/22 08:57:07;;;;;;;27.52;8.55;;;;;;;;;;5099975;28;20021;-76
2022/01/22 08:59:33;;;;;;;25.38;8.30;;;;;;;;;;5098377;28;20039;-75
2022/01/22 09:02:00;;;;;;;27.48;10.02;;;;;;;;;;5100373;28;20030;-75
2022/01/22 09:04:26;;;;;;;28.73;7.22;;;;;;;;;;5098445;28;20547;-75
2022/01/22 09:06:52;;;;;;;35.42;7.90;;;;;;;;;;5097038;28;20523;-76
2022/01/22 09:09:18;;;;;;;26.45;7.88;;;;;;;;;;5098696;28;20020;-75
2022/01/22 09:11:45;;;;;;;37.38;7.22;;;;;;;;;;5098942;28;20052;-74
2022/01/22 09:14:12;;;;;;;34.85;8.00;;;;;;;;;;5099280;28;20036;-74
2022/01/22 09:16:38;;;;;;;24.40;6.85;;;;;;;;;;5109300;28;20107;-75
2022/01/22 09:19:06;;;;;;;22.25;6.80;;;;;;;;;;5105587;28;20523;-77
2022/01/22 09:21:41;;;;;;;25.02;6.70;;;;;;;;;;5097824;28;20552;-76
2022/01/22 09:24:08;;;;;;;27.70;6.95;;;;;;;;;;5099245;28;20468;-76
2022/01/22 09:26:34;;;;;;;21.65;6.10;;;;;;;;;;5099046;28;20024;-76
2022/01/22 09:29:01;;;;;;;27.55;7.25;;;;;;;;;;5101355;28;20055;-75
2022/01/22 09:31:30;;;;;;;26.27;5.85;;;;;;;;;;5097491;28;20496;-76
2022/01/22 09:33:57;;;;;;;28.13;6.65;;;;;;;;;;5097486;28;20024;-75
2022/01/22 09:36:23;;;;;;;17.90;5.88;;;;;;;;;;5099289;28;20044;-77
2022/01/22 09:38:50;;;;;;;29.35;5.55;;;8.40;99.90;;;;;;5096583;28;20039;-75
2022/01/22 09:41:17;;;;;;;26.13;6.05;;;8.30;99.90;;;;;;5105758;28;20077;-79
2022/01/22 09:43:43;;;;;;;20.70;5.05;;;8.30;99.90;;;;;;5107823;28;20028;-76
2022/01/22 09:46:09;;;;;;;27.80;5.75;;;8.30;99.90;;;;;;5099941;28;20039;-80
2022/01/22 09:48:43;;;;;;;23.38;5.45;;;8.30;99.90;;;;;;5097908;28;20446;-77
2022/01/22 09:51:10;;;;;;;23.40;5.30;;;8.30;99.90;;;;;;5102579;28;20016;-78
2022/01/22 09:53:36;;;;;;;22.58;5.40;;;8.30;99.90;;;;;;5096806;28;20028;-74
2022/01/22 09:56:02;;;;;;;20.40;6.00;;;8.30;99.90;;;;;;5094028;28;20040;-74
2022/01/22 09:58:27;;;;;;;22.85;6.50;;;8.30;99.90;;;;;;5093959;28;20032;-76
2022/01/22 10:00:53;;;;;;;19.42;6.30;;;8.40;99.90;;;;;;5094106;28;20059;-76
2022/01/22 10:03:20;;;;;;;23.15;6.78;;;8.40;99.90;;;;;;5097694;28;20035;-77
2022/01/22 10:05:47;;;;;;;22.67;7.40;;;8.40;99.90;;;;;;5096731;28;20032;-77
2022/01/22 10:08:31;;;;;;;20.58;6.55;;;8.50;99.90;;;;;;5097643;28;20020;-76
2022/01/22 10:10:59;;;;;;;20.20;6.20;;;8.50;99.90;;;;;;5097188;28;20020;-74
2022/01/22 10:13:38;;;;;;;22.77;5.88;;;8.50;99.90;;;;;;5097189;28;20077;-75
2022/01/22 10:16:14;;;;;;;13.80;5.40;;;8.50;99.90;;;;;;5095699;28;20024;-76
2022/01/22 10:18:40;;;;;;;20.05;7.30;;;8.50;99.90;;;;;;5096684;28;20204;-76
2022/01/22 10:21:11;;;;;;;22.20;7.15;;;8.50;99.90;;;;;;5103282;28;20290;-76
2022/01/22 10:23:39;;;;;;;25.52;11.55;;;8.40;99.90;;;;;;5099642;28;20024;-76
2022/01/22 10:26:10;;;;;;;47.88;23.15;;;8.40;99.90;;;;;;5093624;28;20110;-75
2022/01/22 10:28:47;;;;;;;32.65;15.38;;;8.40;99.90;;;;;;5094895;28;20107;-76
2022/01/22 10:31:23;;;;;;;29.75;11.52;;;8.40;99.90;;;;;;5101587;28;20020;-77
2022/01/22 10:34:06;;;;;;;21.83;9.43;;;8.40;99.90;;;;;;5101877;28;20031;-77
2022/01/22 10:36:32;;;;;;;24.33;10.75;;;8.40;99.90;;;;;;5095957;28;20039;-76
2022/01/22 10:38:57;;;;;;;23.52;11.80;;;8.40;99.90;;;;;;5094820;28;20032;-76
2022/01/22 10:41:41;;;;;;;24.45;11.90;;;8.40;99.90;;;;;;5099281;28;20024;-75
2022/01/22 10:44:10;;;;;;;25.35;12.48;;;8.40;99.90;;;;;;5098688;28;20035;-73
2022/01/22 10:47:02;;;;;;;33.28;13.48;;;8.40;99.90;;;;;;5091625;28;20045;-75
2022/01/22 10:49:27;;;;;;;25.42;13.25;;;8.40;99.90;;;;;;5095037;28;20422;-77
2022/01/22 10:51:59;;;;;;;31.55;13.90;;;8.40;99.90;;;;;;5092488;28;20028;-75
2022/01/22 10:54:26;;;;;;;27.25;12.73;;;8.40;99.90;;;;;;5094190;28;20028;-76
2022/01/22 10:56:54;;;;;;;23.05;10.98;;;8.40;99.90;;;;;;5093478;28;20079;-76
2022/01/22 10:59:21;;;;;;;30.83;12.18;;;8.50;99.90;;;;;;5094168;28;20028;-75
2022/01/22 11:01:53;;;;;;;23.48;11.05;;;8.50;99.90;;;;;;5094071;28;20063;-77
2022/01/22 11:04:34;;;;;;;24.13;10.93;;;8.60;99.90;;;;;;5093731;28;20020;-76
2022/01/22 11:07:06;;;;;;;23.83;11.07;;;8.60;99.90;;;;;;5092459;28;20064;-76
2022/01/22 11:09:33;;;;;;;28.20;11.02;;;8.70;99.90;;;;;;5100380;28;20097;-75
2022/01/22 11:12:00;;;;;;;26.42;10.48;;;8.70;99.90;;;;;;5097392;28;20112;-75
2022/01/22 11:14:28;;;;;;;15.93;7.47;;;8.60;99.90;;;;;;5092256;28;20445;-76
2022/01/22 11:16:54;;;;;;;14.25;6.47;;;8.70;99.90;;;;;;5092163;28;20481;-76
2022/01/22 11:19:22;;;;;;;13.55;5.93;;;8.70;99.90;;;;;;5092185;28;20126;-77
2022/01/22 11:21:52;;;;;;;12.45;5.28;;;8.70;99.90;;;;;;5086609;28;20023;-77
2022/01/22 11:24:20;;;;;;;12.73;5.13;;;8.70;99.90;;;;;;5083321;28;20622;-76
2022/01/22 11:26:50;;;;;;;8.07;5.03;;;8.60;99.90;;;;;;5085608;28;20095;-76
2022/01/22 11:29:16;;;;;;;8.30;4.88;;;8.70;99.90;;;;;;5084805;28;20157;-77
2022/01/22 11:31:45;;;;;;;9.30;4.55;;;8.70;99.90;;;;;;5089243;28;20028;-76
2022/01/22 11:34:13;;;;;;;10.70;5.35;;;8.70;99.90;;;;;;5091701;28;20021;-78
2022/01/22 11:36:51;;;;;;;12.65;6.18;;;8.60;99.90;;;;;;5089886;28;20043;-76
2022/01/22 11:39:21;;;;;;;12.85;6.43;;;8.60;99.90;;;;;;5095739;28;20526;-77
2022/01/22 11:42:05;;;;;;;15.57;8.43;;;8.50;99.90;;;;;;5096237;28;20035;-76
2022/01/22 11:44:39;;;;;;;13.57;7.65;;;8.60;99.90;;;;;;5086642;28;20059;-77
2022/01/22 11:47:22;;;;;;;14.23;6.95;;;8.60;99.90;;;;;;5086592;28;20024;-76
2022/01/22 11:50:11;;;;;;;10.63;6.55;;;8.60;99.90;;;;;;5084760;28;20021;-75
2022/01/22 11:52:41;;;;;;;14.18;7.40;;;8.70;99.90;;;;;;5086944;28;20035;-76
2022/01/22 11:55:13;;;;;;;12.23;7.28;;;8.70;99.90;;;;;;5082964;28;20032;-76
2022/01/22 11:57:40;;;;;;;11.45;7.10;;;8.60;99.90;;;;;;5089901;28;20349;-77
2022/01/22 12:00:25;;;;;;;16.55;7.13;;;8.60;99.90;;;;;;5079919;28;20028;-76
2022/01/22 12:03:03;;;;;;;12.02;6.43;;;8.60;99.90;;;;;;5083280;28;20028;-77
2022/01/22 12:05:30;;;;;;;11.68;6.35;;;8.60;99.90;;;;;;5084901;28;20058;-76
2022/01/22 12:07:59;;;;;;;11.45;6.40;;;8.70;99.90;;;;;;5086139;28;20031;-74
2022/01/22 12:14:25;;;;;;;8.18;5.60;;;8.70;99.90;;;;;;5092447;28;20034;-77
2022/01/22 12:16:36;;;;;;;26.88;11.25;;;8.80;99.90;;;;;;5080217;28;20038;-77
2022/01/22 12:19:04;;;;;;;7.70;5.05;;;8.90;99.90;;;;;;5088340;28;20080;-75
2022/01/22 12:21:35;;;;;;;7.57;4.05;;;9.00;99.90;;;;;;5090257;28;20407;-76
2022/01/22 12:24:02;;;;;;;10.18;4.40;;;9.00;99.90;;;;;;5088534;28;20108;-76
2022/01/22 12:26:44;;;;;;;6.78;3.60;;;9.00;99.90;;;;;;5083977;28;20020;-75
2022/01/22 12:29:28;;;;;;;5.95;3.55;;;8.90;99.90;;;;;;5085545;28;20020;-76
2022/01/22 12:32:11;;;;;;;8.60;3.23;;;8.90;99.90;;;;;;5087477;28;20058;-76
2022/01/22 12:34:58;;;;;;;9.23;2.95;;;8.90;99.90;;;;;;5085960;28;20254;-76
2022/01/22 12:37:25;;;;;;;10.02;3.13;;;8.80;99.90;;;;;;5088058;28;20492;-75
2022/01/22 12:39:54;;;;;;;7.93;3.35;;;8.80;99.90;;;;;;5085605;28;20032;-75
2022/01/22 12:42:36;;;;;;;7.10;3.15;;;8.80;99.90;;;;;;5089784;28;20016;-73
2022/01/22 12:45:08;;;;;;;5.53;3.10;;;8.80;99.90;;;;;;5085567;28;20059;-76
2022/01/22 12:47:37;;;;;;;8.23;3.45;;;8.90;99.90;;;;;;5095970;28;20016;-75
2022/01/22 12:50:08;;;;;;;5.03;2.65;;;9.10;99.90;;;;;;5089177;28;20017;-76
2022/01/22 12:52:35;;;;;;;7.72;3.00;;;9.00;99.90;;;;;;5094035;28;20043;-75
2022/01/22 12:55:18;;;;;;;4.78;2.83;;;9.00;99.90;;;;;;5106795;22;20049;-73
2022/01/22 12:57:44;;;;;;;6.13;2.80;;;9.10;99.90;;;;;;5054740;28;20461;-74
2022/01/22 13:00:14;;;;;;;4.78;3.20;;;9.20;99.90;;;;;;5054768;28;20025;-71
2022/01/22 13:02:53;;;;;;;5.10;3.33;;;9.30;99.90;;;;;;5055126;28;20025;-72
2022/01/22 13:05:21;;;;;;;9.98;5.25;;;9.40;99.90;;;;;;5055159;28;20470;-76
2022/01/22 13:07:54;;;;;;;8.20;3.60;;;9.30;99.90;;;;;;5056740;28;20025;-71
2022/01/22 13:10:32;;;;;;;7.50;4.18;;;9.30;99.90;;;;;;5056649;28;20021;-73
2022/01/22 13:12:58;;;;;;;10.73;4.05;;;9.30;99.90;;;;;;5058615;28;20025;-73
2022/01/22 13:15:27;;;;;;;5.57;3.63;;;9.20;99.90;;;;;;5055061;28;20063;-72
2022/01/22 13:18:01;;;;;;;9.10;4.30;;;9.20;99.90;;;;;;5054349;28;20024;-73
2022/01/22 13:20:32;;;;;;;9.90;4.03;;;9.10;99.90;;;;;;5054405;28;20075;-72
2022/01/22 13:22:58;;;;;;;9.85;3.95;;;9.10;99.90;;;;;;5054414;28;20025;-73
2022/01/22 13:25:24;;;;;;;8.45;3.72;;;9.10;99.90;;;;;;5054149;28;20047;-73
2022/01/22 13:28:02;;;;;;;9.32;3.72;;;9.10;99.90;;;;;;5054443;28;20021;-72
2022/01/22 13:30:32;;;;;;;9.45;3.70;;;9.00;99.90;;;;;;5054310;28;20052;-73
2022/01/22 13:33:03;;;;;;;6.53;3.47;;;9.00;99.90;;;;;;5054752;28;20036;-74
2022/01/22 13:49:02;;;;;;;7.85;2.10;;;8.80;99.90;;;;;;5061074;28;20090;-74
2022/01/22 13:51:28;;;;;;;7.45;2.38;;;8.90;99.90;;;;;;5054649;28;20075;-73
2022/01/22 13:53:56;;;;;;;6.07;2.33;;;8.90;99.90;;;;;;5054997;28;20470;-72
2022/01/22 13:56:47;;;;;;;5.68;2.00;;;8.90;99.90;;;;;;5052517;28;20552;-73
2022/01/22 13:59:14;;;;;;;8.10;2.03;;;8.80;99.90;;;;;;5053852;28;20059;-73
2022/01/22 14:01:50;;;;;;;3.83;1.77;;;8.80;99.90;;;;;;5055564;28;20025;-73
2022/01/22 14:04:16;;;;;;;4.18;2.20;;;8.70;99.90;;;;;;5055161;28;20421;-74
2022/01/22 14:06:46;;;;;;;4.50;1.58;;;8.70;99.90;;;;;;5053928;28;20021;-75
2022/01/22 14:09:20;;;;;;;3.00;1.75;;;8.80;99.90;;;;;;5054463;28;20020;-73
2022/01/22 14:12:05;;;;;;;5.10;1.90;;;8.80;99.90;;;;;;5054675;28;20025;-74
2022/01/22 14:14:56;;;;;;;4.78;1.67;;;8.90;99.90;;;;;;5060262;28;20688;-74
2022/01/22 14:17:24;;;;;;;3.95;1.95;;;8.90;99.90;;;;;;5062971;28;20025;-74
2022/01/22 14:20:07;;;;;;;5.53;2.25;;;8.90;99.90;;;;;;5064014;28;20028;-73
2022/01/22 14:22:53;;;;;;;5.47;2.47;;;8.90;99.90;;;;;;5053525;28;20406;-74
2022/01/22 14:25:18;;;;;;;6.75;2.10;;;8.90;99.90;;;;;;5053068;28;20039;-73
2022/01/22 14:28:09;;;;;;;8.25;2.90;;;8.80;99.90;;;;;;5055000;28;20021;-73
2022/01/22 14:30:38;;;;;;;6.70;2.83;;;8.90;99.90;;;;;;5054694;28;20405;-75
2022/01/22 14:33:04;;;;;;;7.40;3.35;;;9.00;99.90;;;;;;5055170;28;20029;-74
2022/01/22 14:35:31;;;;;;;5.60;3.00;;;9.00;99.90;;;;;;5056657;28;20032;-73
2022/01/22 14:38:16;;;;;;;7.45;2.50;;;9.10;99.90;;;;;;5062569;28;20407;-74
2022/01/22 14:46:11;;;;;;;5.93;2.35;;;8.90;99.90;;;;;;5055432;28;20456;-73
2022/01/22 14:48:37;;;;;;;8.60;4.13;;;8.90;99.90;;;;;;5060307;28;20041;-73
2022/01/22 14:51:02;;;;;;;8.77;3.70;;;8.80;99.90;;;;;;5063691;28;20389;-73
2022/01/22 14:53:28;;;;;;;11.63;3.40;;;8.70;99.90;;;;;;5063918;28;20025;-73
2022/01/22 14:55:58;;;;;;;10.90;2.90;;;8.70;99.90;;;;;;5052900;28;20037;-75
2022/01/22 14:58:24;;;;;;;7.55;2.67;;;8.70;99.90;;;;;;5057616;28;20028;-75